Time;durP1;ratioP1;P1;durP2;ratioP2;P2;SDS_P1;SDS_P2;PMS_P1;PMS_P2;Temp;Humidity;BMP_temperature;BMP_pressure;BME280_temperature;BME280_humidity;BME280_pressure;Samples;Min_cycle;Max_cycle;Signal;HPM_P1;HPM_P2
2022/01/02 00:02:22;;;;;;;;;;;;;;;9.10;95.96;101613.31;5058702;28;20037;-67
2022/01/02 00:04:49;;;;;;;9.40;4.97;;;;;;;9.04;95.57;101618.97;5062596;28;19966;-66
2022/01/02 00:07:16;;;;;;;9.80;5.03;;;;;;;8.95;96.48;101617.97;5059914;28;20569;-67
2022/01/02 00:09:50;;;;;;;10.32;5.53;;;;;;;8.97;96.33;101618.66;5057211;28;20493;-67
2022/01/02 00:12:25;;;;;;;13.07;5.60;;;;;;;9.00;96.13;101615.81;5056105;28;20548;-66
2022/01/02 00:14:55;;;;;;;11.05;5.13;;;;;;;8.98;96.11;101612.53;5042962;28;20067;-67
2022/01/02 00:17:23;;;;;;;10.40;5.00;;;;;;;8.97;96.26;101608.31;5057995;28;20784;-67
2022/01/02 00:19:56;;;;;;;11.85;5.40;;;;;;;9.11;95.74;101617.53;5058716;28;20033;-66
2022/01/02 00:22:33;;;;;;;11.10;5.03;;;;;;;9.03;95.48;101607.81;5058363;28;20524;-67
2022/01/02 00:25:00;;;;;;;8.05;4.30;;;;;;;8.93;95.63;101627.63;5054138;28;20039;-67
2022/01/02 00:27:27;;;;;;;10.45;5.28;;;;;;;8.92;96.10;101611.25;5056669;28;20041;-67
2022/01/02 00:29:55;;;;;;;12.40;5.55;;;;;;;9.03;96.04;101612.16;5053465;28;20486;-66
2022/01/02 00:32:21;;;;;;;10.82;5.25;;;;;;;9.08;95.43;101605.66;5059155;28;20129;-67
2022/01/02 00:34:50;;;;;;;12.43;5.47;;;;;;;8.94;95.38;101611.94;5062388;28;20032;-67
2022/01/02 00:37:16;;;;;;;11.75;4.90;;;;;;;8.95;95.74;101616.19;5057789;28;20638;-66
2022/01/02 00:39:43;;;;;;;11.05;5.03;;;;;;;8.90;95.98;101623.50;5059276;28;20029;-67
2022/01/02 00:42:20;;;;;;;12.25;4.55;;;;;;;8.89;96.13;101621.03;5065458;28;20178;-67
2022/01/02 00:45:04;;;;;;;9.00;4.65;;;;;;;8.88;96.19;101609.88;5057334;28;20033;-67
2022/01/02 00:47:50;;;;;;;12.90;5.13;;;;;;;9.00;96.07;101617.56;5060419;28;20033;-67
2022/01/02 00:50:20;;;;;;;9.18;4.97;;;;;;;8.91;95.97;101609.63;5081952;28;20395;-67
2022/01/02 00:52:48;;;;;;;15.68;5.75;;;;;;;8.91;95.92;101607.06;5063970;28;20067;-67
2022/01/02 00:55:19;;;;;;;13.02;5.72;;;;;;;8.94;95.63;101604.19;5056689;28;20023;-67
2022/01/02 00:57:56;;;;;;;10.98;5.28;;;;;;;8.89;95.64;101616.69;5063137;28;20039;-67
2022/01/02 01:00:25;;;;;;;10.98;5.15;;;;;;;8.88;96.13;101611.66;5080984;28;20483;-67
2022/01/02 01:02:54;;;;;;;10.88;4.57;;;;;;;8.86;96.27;101600.63;5058787;28;20032;-67
2022/01/02 01:05:25;;;;;;;9.43;5.15;;;;;;;8.95;95.64;101602.44;5057095;28;20558;-67
2022/01/02 01:07:53;;;;;;;9.88;5.03;;;;;;;8.91;95.49;101590.69;5066452;28;20116;-67
2022/01/02 01:10:21;;;;;;;10.27;4.50;;;;;;;8.92;95.44;101592.34;5068415;28;20515;-67
2022/01/02 01:12:52;;;;;;;10.40;5.82;;;;;;;8.90;95.78;101602.00;5062913;28;20075;-67
2022/01/02 01:15:23;;;;;;;11.75;5.30;;;;;;;8.85;95.93;101604.13;5055538;28;20024;-66
2022/01/02 01:17:53;;;;;;;12.70;5.93;;;;;;;8.91;95.71;101619.13;5064710;28;20521;-67
2022/01/02 01:20:19;;;;;;;11.35;5.13;;;;;;;8.90;95.73;101617.50;5067802;28;20058;-67
2022/01/02 01:22:45;;;;;;;8.95;4.97;;;;;;;8.90;95.60;101614.94;5067346;28;20020;-67
2022/01/02 01:25:15;;;;;;;10.13;5.35;;;;;;;8.92;95.63;101615.63;5056349;28;20097;-67
2022/01/02 01:27:43;;;;;;;9.18;4.90;;;;;;;8.94;95.35;101613.72;5067821;28;20052;-67
2022/01/02 01:30:09;;;;;;;9.85;4.97;;;;;;;8.94;95.28;101609.38;5056856;28;20457;-67
2022/01/02 01:32:36;;;;;;;12.52;5.03;;;;;;;8.99;94.72;101613.38;5066659;28;20032;-67
2022/01/02 01:35:02;;;;;;;12.13;5.32;;;;;;;9.11;94.37;101607.16;5059344;28;20056;-67
2022/01/02 01:37:29;;;;;;;9.40;5.68;;;;;;;9.05;94.31;101605.91;5051075;28;20082;-67
2022/01/02 01:39:55;;;;;;;9.93;4.50;;;;;;;9.13;93.80;101600.09;5057006;28;20028;-67
2022/01/02 01:42:32;;;;;;;9.98;5.15;;;;;;;9.02;94.04;101595.81;5062021;28;20025;-67
2022/01/02 01:47:57;;;;;;;11.73;5.03;;;;;;;8.93;95.08;101588.81;5063186;28;20040;-67
2022/01/02 01:50:26;;;;;;;10.38;4.57;;;;;;;8.89;95.47;101579.66;5054097;28;20410;-67
2022/01/02 01:52:52;;;;;;;10.57;5.25;;;;;;;8.95;95.38;101561.06;5064204;28;20051;-67
2022/01/02 01:55:18;;;;;;;10.55;5.00;;;;;;;8.89;95.63;101564.97;5085845;22;21831;-77
2022/01/02 01:57:45;;;;;;;9.63;5.20;;;;;;;8.85;95.83;101578.25;5049846;28;20511;-77
2022/01/02 02:00:15;;;;;;;9.90;4.47;;;;;;;8.81;96.05;101593.22;5038561;28;20120;-77
2022/01/02 02:02:44;;;;;;;7.77;4.57;;;;;;;8.80;96.54;101596.75;5047513;28;20517;-77
2022/01/02 02:05:13;;;;;;;7.32;4.07;;;;;;;8.81;96.39;101595.78;5043440;28;20036;-77
2022/01/02 02:07:45;;;;;;;10.52;4.53;;;;;;;8.87;96.22;101579.81;5039430;28;20553;-77
2022/01/02 02:10:34;;;;;;;9.27;5.07;;;;;;;8.91;95.85;101572.59;5046054;28;20179;-77
2022/01/02 02:13:04;;;;;;;8.52;4.63;;;;;;;8.91;95.78;101580.34;5053913;28;20039;-77
2022/01/02 02:15:32;;;;;;;8.00;4.82;;;;;;;8.88;95.71;101585.78;5044224;28;20049;-77
2022/01/02 02:17:58;;;;;;;10.60;4.60;;;;;;;8.86;95.63;101585.09;5045180;28;20037;-77
2022/01/02 02:20:25;;;;;;;11.57;4.80;;;;;;;8.81;95.80;101575.09;5045870;28;20391;-77
2022/01/02 02:22:55;;;;;;;12.85;4.35;;;;;;;8.81;96.18;101575.09;5043195;28;20037;-77
2022/01/02 02:25:27;;;;;;;9.85;4.65;;;;;;;8.81;96.18;101567.34;5043099;28;20401;-77
2022/01/02 02:27:57;;;;;;;9.23;4.53;;;;;;;8.86;96.19;101567.00;5027745;28;20032;-77
2022/01/02 02:30:24;;;;;;;9.55;4.80;;;;;;;8.81;95.83;101557.00;5024892;28;20114;-77
2022/01/02 02:32:54;;;;;;;10.73;4.13;;;;;;;8.81;95.81;101535.50;5044397;28;20391;-77
2022/01/02 02:35:21;;;;;;;9.95;4.43;;;;;;;8.83;95.79;101528.44;5026994;28;20491;-77
2022/01/02 02:37:47;;;;;;;12.23;5.00;;;;;;;8.97;94.93;101510.00;5026798;28;20037;-76
2022/01/02 02:40:18;;;;;;;11.82;4.38;;;;;;;8.99;94.71;101515.88;5041497;28;20025;-77
2022/01/02 02:42:50;;;;;;;10.68;4.32;;;;;;;9.06;93.97;101501.50;5044217;28;20048;-77
2022/01/02 02:49:20;;;;;;;9.48;4.25;;;;;;;9.04;94.08;101507.72;5043173;28;20033;-77
2022/01/02 02:51:23;;;;;;;9.77;4.57;;;;;;;9.07;94.04;101512.66;5025157;28;20065;-77
2022/01/02 02:53:50;;;;;;;11.68;4.47;;;;;;;9.10;93.89;101489.13;5038130;28;21520;-77
2022/01/02 02:56:21;;;;;;;7.63;3.65;;;;;;;9.15;93.45;101505.06;5042961;28;20033;-77
2022/01/02 02:58:52;;;;;;;14.90;4.35;;;;;;;9.07;93.55;101505.69;5045008;28;20472;-76
2022/01/02 03:01:20;;;;;;;12.00;4.28;;;;;;;9.02;94.17;101501.84;5040608;28;20577;-77
2022/01/02 03:03:48;;;;;;;10.20;4.30;;;;;;;8.99;94.51;101510.72;5025867;28;20167;-77
2022/01/02 03:06:15;;;;;;;8.30;4.18;;;;;;;8.94;94.51;101508.47;5041811;28;20029;-77
2022/01/02 03:08:43;;;;;;;10.13;3.72;;;;;;;9.00;94.66;101503.75;5019774;28;20083;-77
2022/01/02 03:11:15;;;;;;;11.82;4.35;;;;;;;9.01;94.63;101506.22;5038482;28;20438;-77
2022/01/02 03:13:42;;;;;;;9.10;3.97;;;;;;;9.00;94.92;101501.16;5037170;28;20108;-77
2022/01/02 03:16:08;;;;;;;13.40;4.25;;;;;;;9.05;94.75;101491.25;5041675;28;21316;-77
2022/01/02 03:18:34;;;;;;;12.32;4.50;;;;;;;9.05;94.39;101486.09;5043205;28;20055;-77
2022/01/02 03:21:00;;;;;;;10.95;5.10;;;;;;;9.16;93.84;101492.00;5040341;28;20029;-77
2022/01/02 03:23:25;;;;;;;8.68;4.50;;;;;;;9.19;93.70;101497.84;5036128;28;20033;-77
2022/01/02 03:25:52;;;;;;;19.58;4.72;;;;;;;9.17;93.75;101495.38;5025988;28;20036;-77
2022/01/02 03:28:20;;;;;;;14.80;5.30;;;;;;;9.25;93.20;101497.31;5023466;28;20079;-77
2022/01/02 03:30:46;;;;;;;12.82;4.57;;;;;;;9.27;92.88;101504.03;5043407;28;20383;-77
2022/01/02 03:33:12;;;;;;;11.57;4.07;;;;;;;9.20;93.37;101495.13;5040951;28;20026;-77
2022/01/02 03:35:38;;;;;;;17.40;4.93;;;;;;;9.18;93.78;101484.09;5038337;28;20079;-77
2022/01/02 03:38:05;;;;;;;14.40;4.70;;;;;;;9.12;94.07;101477.69;5026175;28;20112;-78
2022/01/02 03:40:32;;;;;;;9.23;4.32;;;;;;;9.03;94.44;101464.72;5038230;28;20442;-77
2022/01/02 03:42:57;;;;;;;14.05;4.05;;;;;;;9.01;95.17;101459.66;5036084;28;20452;-77
2022/01/02 03:45:23;;;;;;;12.20;4.63;;;;;;;8.99;95.32;101446.03;5035057;28;20490;-78
2022/01/02 03:47:49;;;;;;;9.48;4.00;;;;;;;8.97;95.75;101455.69;5037114;28;20381;-77
2022/01/02 03:50:15;;;;;;;12.23;5.20;;;;;;;8.96;95.65;101456.63;5018230;28;20055;-77
2022/01/02 03:52:41;;;;;;;9.25;4.80;;;;;;;8.91;96.08;101458.78;5021493;28;20032;-77
2022/01/02 03:55:07;;;;;;;11.48;4.57;;;;;;;8.94;96.00;101448.19;5027194;28;20387;-77
2022/01/02 03:57:33;;;;;;;7.80;3.88;;;;;;;8.92;96.24;101442.31;5044230;28;20036;-77
2022/01/02 04:00:00;;;;;;;8.70;4.10;;;;;;;8.89;96.08;101437.41;5032571;28;20292;-78
2022/01/02 04:02:26;;;;;;;10.63;4.53;;;;;;;8.94;96.36;101435.25;5086994;23;20036;-67
2022/01/02 04:04:52;;;;;;;9.43;4.82;;;;;;;8.94;96.32;101438.66;5098602;28;20038;-66
2022/01/02 04:07:18;;;;;;;12.90;4.82;;;;;;;9.03;96.49;101447.41;5120980;27;20193;-69
2022/01/02 04:09:44;;;;;;;16.23;4.95;;;;;;;9.05;96.32;101442.09;5088250;28;20433;-69
2022/01/02 04:12:10;;;;;;;14.40;5.18;;;;;;;9.07;96.43;101437.63;5106336;28;20029;-69
2022/01/02 04:14:35;;;;;;;11.82;4.80;;;;;;;9.01;96.90;101443.31;5102547;28;20035;-69
2022/01/02 04:17:03;;;;;;;10.70;4.70;;;;;;;9.07;96.76;101446.19;5097318;28;20104;-69
2022/01/02 04:19:30;;;;;;;10.68;4.80;;;;;;;9.04;96.87;101461.16;5100814;28;20019;-69
2022/01/02 04:21:56;;;;;;;11.43;5.05;;;;;;;8.99;97.37;101446.03;5125687;28;20488;-69
2022/01/02 04:24:21;;;;;;;10.77;4.60;;;;;;;8.96;97.25;101438.53;5097801;28;20038;-69
2022/01/02 04:26:47;;;;;;;13.73;5.00;;;;;;;8.94;97.52;101438.66;5110372;28;20088;-69
2022/01/02 04:29:13;;;;;;;12.10;5.50;;;;;;;8.91;98.07;101436.34;5116142;28;20122;-69
2022/01/02 04:31:39;;;;;;;11.75;5.60;;;;;;;8.96;97.80;101438.53;5108129;28;20095;-69
2022/01/02 04:34:05;;;;;;;14.60;5.38;;;;;;;8.90;98.62;101428.69;5116857;28;20242;-69
2022/01/02 04:36:30;;;;;;;15.93;5.95;;;;;;;8.97;98.66;101419.47;5109048;28;20035;-66
2022/01/02 04:38:56;;;;;;;14.52;5.93;;;;;;;9.00;98.49;101414.03;5122108;27;20027;-66
2022/01/02 04:41:22;;;;;;;9.32;4.75;;;;;;;8.90;98.42;101408.00;5109623;27;20047;-66
2022/01/02 04:43:47;;;;;;;9.65;5.45;;;;;;;8.91;98.58;101420.81;5098472;28;20492;-66
2022/01/02 04:46:14;;;;;;;13.68;5.78;;;;;;;8.92;99.12;101417.28;5110676;27;20065;-68
2022/01/02 04:48:40;;;;;;;15.85;5.80;;;;;;;9.06;98.85;101408.34;5098320;27;20027;-69
2022/01/02 04:51:06;;;;;;;14.15;5.22;;;;;;;9.04;98.75;101401.66;5090643;27;20047;-69
2022/01/02 04:53:31;;;;;;;13.82;5.47;;;;;;;8.99;99.28;101394.31;5087377;27;20027;-69
2022/01/02 04:55:57;;;;;;;9.25;4.75;;;;;;;8.92;99.42;101388.81;5108390;27;20026;-69
2022/01/02 04:58:24;;;;;;;20.98;5.72;;;;;;;8.95;99.66;101373.03;5115303;27;20442;-69
2022/01/02 05:00:49;;;;;;;17.90;6.00;;;;;;;9.05;99.58;101364.50;5108949;27;20051;-69
2022/01/02 05:03:15;;;;;;;17.42;5.80;;;;;;;9.13;99.15;101362.88;5087519;27;20035;-69
2022/01/02 05:05:41;;;;;;;16.75;6.43;;;;;;;9.14;99.35;101367.09;5108714;27;20035;-69
2022/01/02 05:08:07;;;;;;;14.40;6.25;;;;;;;9.17;99.13;101360.84;5125476;27;20040;-69
2022/01/02 05:10:33;;;;;;;15.45;7.35;;;;;;;9.13;99.46;101355.09;5105515;27;20031;-69
2022/01/02 05:12:59;;;;;;;21.08;6.47;;;;;;;9.15;99.41;101353.22;5124767;27;20518;-69
2022/01/02 05:15:24;;;;;;;17.85;6.10;;;;;;;9.15;99.50;101354.97;5100078;27;20657;-69
2022/01/02 05:17:50;;;;;;;17.20;6.50;;;;;;;9.13;99.35;101359.47;5102807;27;20524;-69
2022/01/02 05:20:16;;;;;;;13.65;7.03;;;;;;;9.16;99.30;101349.69;5130778;27;20034;-69
2022/01/02 05:22:42;;;;;;;18.80;7.10;;;;;;;9.09;99.51;101352.94;5109084;27;20027;-69
2022/01/02 05:25:08;;;;;;;16.95;7.00;;;;;;;9.05;99.90;101357.56;5085381;27;20595;-68
2022/01/02 05:27:34;;;;;;;19.33;7.28;;;;;;;9.02;100.00;101357.81;5095645;27;20126;-69
2022/01/02 05:30:01;;;;;;;19.45;7.13;;;;;;;9.10;100.00;101347.63;5112207;27;20110;-69
2022/01/02 05:32:27;;;;;;;15.15;7.35;;;;;;;9.11;100.00;101340.69;5113443;27;20027;-68
2022/01/02 05:34:53;;;;;;;13.57;7.18;;;;;;;9.09;99.99;101334.81;5122107;27;20076;-69
2022/01/02 05:37:19;;;;;;;15.30;7.10;;;;;;;9.10;100.00;101319.16;5103472;27;20444;-69
2022/01/02 05:39:45;;;;;;;16.42;7.68;;;;;;;9.08;100.00;101321.06;5112651;27;20622;-69
2022/01/02 05:42:11;;;;;;;24.02;8.57;;;;;;;9.11;100.00;101323.38;5124783;27;20026;-69
2022/01/02 05:44:37;;;;;;;20.52;7.70;;;;;;;9.05;100.00;101334.25;5112102;27;20058;-69
2022/01/02 05:47:03;;;;;;;22.02;7.95;;;;;;;9.04;100.00;101332.66;5116108;27;20576;-69
2022/01/02 05:49:29;;;;;;;20.75;8.50;;;;;;;9.11;100.00;101333.72;5115659;27;20031;-69
2022/01/02 05:51:55;;;;;;;25.02;9.23;;;;;;;9.15;100.00;101316.16;5115443;27;20035;-69
2022/01/02 05:54:21;;;;;;;20.35;7.68;;;;;;;9.06;99.87;101315.22;5095094;27;20115;-69
2022/01/02 05:56:47;;;;;;;18.95;8.68;;;;;;;9.12;100.00;101303.53;5094405;27;20023;-69
2022/01/02 05:59:13;;;;;;;18.08;9.30;;;;;;;9.13;99.98;101293.00;5112624;27;20027;-69
2022/01/02 06:01:39;;;;;;;16.95;9.43;;;;;;;9.11;99.88;101278.59;5105871;27;20505;-69
2022/01/02 06:04:05;;;;;;;19.63;8.45;;;;;;;9.03;100.00;101289.59;5103076;27;20051;-69
2022/01/02 06:06:30;;;;;;;21.58;8.57;;;;;;;9.00;100.00;101282.09;5091085;27;20058;-69
2022/01/02 06:08:56;;;;;;;20.23;9.82;;;;;;;9.00;100.00;101276.13;5109384;27;20054;-69
2022/01/02 06:11:22;;;;;;;16.65;8.35;;;;;;;9.00;100.00;101276.13;5107531;27;20042;-69
2022/01/02 06:13:48;;;;;;;17.95;8.65;;;;;;;9.03;100.00;101266.31;5109571;27;20027;-69
2022/01/02 06:16:14;;;;;;;20.15;9.07;;;;;;;9.06;100.00;101276.41;5127911;27;20027;-69
2022/01/02 06:18:40;;;;;;;23.60;9.05;;;;;;;9.02;100.00;101275.03;5111069;27;20027;-69
2022/01/02 06:21:07;;;;;;;15.65;9.20;;;;;;;9.06;100.00;101276.41;5103400;27;20019;-69
2022/01/02 06:23:33;;;;;;;19.58;8.48;;;;;;;9.10;100.00;101271.78;5112350;27;20086;-69
2022/01/02 06:25:58;;;;;;;19.15;8.70;;;;;;;8.96;100.00;101275.56;5112390;27;22104;-69
2022/01/02 06:28:24;;;;;;;22.15;9.20;;;;;;;8.96;100.00;101254.88;5124762;27;20170;-69
2022/01/02 06:30:52;;;;;;;20.95;8.77;;;;;;;8.90;100.00;101260.59;5114590;27;20113;-69
2022/01/02 06:33:18;;;;;;;19.98;9.10;;;;;;;8.94;100.00;101255.00;5107085;27;20035;-69
2022/01/02 06:35:43;;;;;;;22.63;9.77;;;;;;;9.10;100.00;101245.91;5102983;27;20024;-69
2022/01/02 06:38:16;;;;;;;22.23;9.73;;;;;;;9.01;100.00;101238.97;5120576;27;20042;-69
2022/01/02 06:40:45;;;;;;;19.70;8.90;;;;;;;9.09;100.00;101232.16;5110410;27;20167;-69
2022/01/02 06:43:13;;;;;;;18.65;8.63;;;;;;;9.05;99.96;101211.88;5114544;27;20115;-69
2022/01/02 06:45:40;;;;;;;20.40;9.68;;;;;;;9.02;100.00;101206.97;5106357;27;20027;-69
2022/01/02 06:48:06;;;;;;;25.58;9.50;;;;;;;9.11;99.88;101190.63;5106459;27;20072;-69
2022/01/02 06:50:32;;;;;;;21.10;8.98;;;;;;;9.03;100.00;101186.13;5098473;27;20054;-69
2022/01/02 06:52:59;;;;;;;22.25;9.20;;;;;;;9.06;100.00;101182.44;5106421;27;20557;-69
2022/01/02 06:55:25;;;;;;;28.02;9.90;;;;;;;9.07;100.00;101160.81;5121401;27;20065;-69
2022/01/02 06:57:52;;;;;;;18.00;10.27;;;;;;;9.03;100.00;101162.84;5104084;27;20117;-69
2022/01/02 07:00:18;;;;;;;23.90;8.38;;;;;;;9.05;100.00;101163.53;5113267;27;20070;-69
2022/01/02 07:02:45;;;;;;;20.95;10.13;;;;;;;9.09;99.88;101169.25;5120814;27;20646;-69
2022/01/02 07:05:12;;;;;;;15.93;7.45;;;;;;;9.16;99.55;101158.22;5110560;27;20050;-70
2022/01/02 07:07:41;;;;;;;20.02;7.55;;;;;;;9.18;99.43;101154.69;5118870;27;20486;-69
2022/01/02 07:10:07;;;;;;;17.02;8.48;;;;;;;9.18;99.25;101155.50;5100345;27;20036;-69
2022/01/02 07:12:34;;;;;;;14.30;7.30;;;;;;;9.28;98.60;101155.47;5106000;27;20031;-69
2022/01/02 07:15:00;;;;;;;17.83;7.60;;;;;;;9.29;98.52;101154.53;5111380;27;20039;-69
2022/01/02 07:17:25;;;;;;;25.55;8.02;;;;;;;9.36;97.77;101147.81;5119063;27;20030;-69
2022/01/02 07:19:51;;;;;;;15.80;6.88;;;;;;;9.38;97.70;101150.28;5122340;27;20023;-69
2022/01/02 07:22:16;;;;;;;15.05;7.07;;;;;;;9.42;97.39;101134.34;5121934;27;20050;-69
2022/01/02 07:24:47;;;;;;;19.25;7.15;;;;;;;9.40;97.38;101127.66;5094275;28;20035;-68
2022/01/02 07:27:13;;;;;;;16.60;6.22;;;;;;;9.44;96.95;101129.84;5101501;27;20500;-69
2022/01/02 07:29:39;;;;;;;17.48;6.07;;;;;;;9.50;96.57;101115.50;5090126;27;20018;-69
2022/01/02 07:32:04;;;;;;;10.57;5.75;;;;;;;9.54;96.42;101103.91;5123483;27;20083;-68
2022/01/02 07:34:30;;;;;;;15.82;5.88;;;;;;;9.59;95.60;101078.44;5120458;27;20433;-69
2022/01/02 07:36:56;;;;;;;11.93;5.97;;;;;;;9.63;95.20;101053.88;5105600;27;20040;-69
2022/01/02 07:39:21;;;;;;;13.82;5.18;;;;;;;9.64;94.95;101039.94;5116487;27;20163;-69
2022/01/02 07:41:47;;;;;;;17.05;5.15;;;;;;;9.71;94.50;101030.66;5125080;27;20063;-69
2022/01/02 07:44:14;;;;;;;15.25;5.85;;;;;;;9.74;94.46;101026.97;5105872;28;20473;-69
2022/01/02 07:46:40;;;;;;;21.08;5.45;;;;;;;9.68;94.50;101020.59;5104119;27;20047;-69
2022/01/02 07:49:06;;;;;;;9.77;5.47;;;;;;;9.75;94.21;101010.47;5110249;27;20031;-69
2022/01/02 07:51:32;;;;;;;16.33;5.78;;;;;;;9.74;93.88;101017.44;5107645;27;20027;-70
2022/01/02 07:53:58;;;;;;;25.40;6.32;;;;;;;9.78;93.43;101017.16;5125326;27;20411;-69
2022/01/02 07:56:24;;;;;;;12.68;5.72;;;;;;;9.71;93.63;101003.94;5114905;22;20156;-70
2022/01/02 07:58:50;;;;;;;19.52;5.90;;;;;;;9.76;93.78;100996.56;5029682;28;20033;-70
2022/01/02 08:01:16;;;;;;;18.55;6.32;;;;;;;9.70;93.53;100995.38;5042762;28;20037;-70
2022/01/02 08:03:41;;;;;;;11.60;5.07;;;;;;;9.74;92.90;100982.97;5028851;28;20038;-69
2022/01/02 08:06:07;;;;;;;21.55;5.80;;;;;;;9.71;92.87;100980.66;5025746;28;20576;-70
2022/01/02 08:08:33;;;;;;;14.80;5.45;;;;;;;9.65;92.85;100979.44;5044916;28;20029;-69
2022/01/02 08:10:58;;;;;;;16.45;5.20;;;;;;;9.73;92.52;100983.91;5028420;28;20029;-70
2022/01/02 08:13:24;;;;;;;15.40;5.80;;;;;;;9.72;92.29;100979.69;5043018;28;20438;-70
2022/01/02 08:15:50;;;;;;;13.07;5.60;;;;;;;9.78;91.98;100994.66;5031399;28;20041;-69
2022/01/02 08:18:16;;;;;;;13.32;5.05;;;;;;;9.80;91.90;100971.19;5022628;28;20052;-70
2022/01/02 08:20:45;;;;;;;10.25;5.47;;;;;;;9.72;91.85;100959.78;5034554;28;20064;-70
2022/01/02 08:23:13;;;;;;;12.10;5.25;;;;;;;9.75;91.66;100971.63;5020707;28;20033;-69
2022/01/02 08:25:39;;;;;;;12.55;5.15;;;;;;;9.77;91.28;100969.69;5033927;28;20064;-70
2022/01/02 08:28:05;;;;;;;12.98;5.15;;;;;;;9.82;91.01;100982.22;5025971;28;20075;-70
2022/01/02 08:30:31;;;;;;;13.25;5.60;;;;;;;9.75;91.41;100956.09;5049350;28;20060;-70
2022/01/02 08:32:57;;;;;;;11.45;5.45;;;;;;;9.68;91.78;100992.13;5043284;28;20040;-70
2022/01/02 08:35:23;;;;;;;9.20;4.90;;;;;;;9.79;91.02;100974.75;5040785;28;20037;-69
2022/01/02 08:37:48;;;;;;;9.43;4.55;;;;;;;9.81;90.49;100980.59;5047131;28;20510;-70
2022/01/02 08:40:14;;;;;;;14.90;4.68;;;;;;;9.78;90.64;100991.25;5023270;28;20451;-70
2022/01/02 08:42:40;;;;;;;11.27;4.70;;;;;;;9.84;89.64;100994.06;5020344;28;20057;-70
2022/01/02 08:45:06;;;;;;;13.90;5.15;;;;;;;10.00;88.94;101000.34;5030414;28;20469;-70
2022/01/02 08:47:32;;;;;;;11.85;4.00;;;;;;;9.97;89.19;100985.13;5043804;28;20052;-69
2022/01/02 08:49:58;;;;;;;9.75;4.13;;;;;;;9.89;88.52;101002.22;5042343;28;20033;-70
2022/01/02 08:52:24;;;;;;;9.40;4.65;;;;;;;9.74;90.24;101011.44;5032933;28;20061;-70
2022/01/02 08:54:50;;;;;;;9.13;4.13;;;;;;;9.63;91.28;101015.03;5042045;28;20029;-70
2022/01/02 08:57:17;;;;;;;8.48;4.10;;;;;;;9.58;92.15;101006.06;5032583;28;20029;-70
2022/01/02 08:59:43;;;;;;;10.65;3.58;;;;;;;9.65;90.91;101007.13;5049881;28;20029;-70
2022/01/02 09:02:08;;;;;;;9.05;4.03;;;;;;;9.58;91.64;101012.06;5034103;28;20064;-70
2022/01/02 09:04:35;;;;;;;11.23;4.65;;;;;;;9.52;92.37;101010.84;5031473;28;20091;-70
2022/01/02 09:07:01;;;;;;;9.05;3.80;;;;;;;9.59;91.55;101005.09;5029910;28;20033;-70
2022/01/02 09:09:28;;;;;;;7.20;3.50;;;;;;;9.71;89.50;101011.72;5032675;28;20032;-70
2022/01/02 09:11:54;;;;;;;7.63;3.53;;;;;;;9.75;89.14;101018.22;5027861;28;20032;-70
2022/01/02 09:14:20;;;;;;;8.50;2.78;;;;;;;9.79;89.00;101014.38;5043691;28;20497;-70
2022/01/02 09:16:46;;;;;;;5.15;3.00;;;;;;;9.77;89.21;100997.38;5030203;28;20041;-70
2022/01/02 09:19:12;;;;;;;9.57;3.45;;;;;;;9.74;89.15;100995.91;5033212;28;20142;-70
2022/01/02 09:21:38;;;;;;;6.68;2.97;;;;;;;9.72;89.51;101003.00;5032122;28;20043;-70
2022/01/02 09:24:05;;;;;;;10.52;3.10;;;;;;;9.69;90.17;101013.66;5046714;28;20033;-70
2022/01/02 09:26:30;;;;;;;10.60;3.05;;;;;;;9.65;91.45;101026.06;5026308;28;20128;-70
2022/01/02 09:28:56;;;;;;;6.20;2.50;;;;;;;9.63;91.63;101037.53;5028115;28;20195;-70
2022/01/02 09:31:22;;;;;;;8.35;3.38;;;;;;;9.70;92.24;101044.56;5043079;28;20601;-70
2022/01/02 09:33:49;;;;;;;6.20;3.47;;;;;;;9.67;92.00;101025.91;5045241;28;20490;-70
2022/01/02 09:36:15;;;;;;;4.28;2.10;;;;;;;10.01;86.68;101017.53;5032366;28;20036;-70
2022/01/02 09:38:42;;;;;;;5.95;2.30;;;;;;;10.33;83.07;101002.31;5048339;28;20033;-70
2022/01/02 09:41:08;;;;;;;7.07;1.90;;;;;;;10.67;80.32;100998.19;5049799;28;20021;-70
2022/01/02 09:43:34;;;;;;;7.53;2.70;;;;;;;10.82;80.00;101019.22;5048615;28;20033;-70
2022/01/02 09:46:02;;;;;;;11.25;2.00;;;;;;;11.04;79.24;101010.13;5029330;28;20098;-70
2022/01/02 09:48:28;;;;;;;7.25;1.90;;;;;;;11.15;78.75;101016.81;5029602;28;20040;-70
2022/01/02 09:50:54;;;;;;;7.00;2.53;;;;;;;11.25;78.04;101023.50;5034653;28;20044;-70
2022/01/02 09:53:21;;;;;;;7.43;2.03;;;;;;;11.31;77.95;101029.88;5049922;28;20083;-69
2022/01/02 09:55:46;;;;;;;9.05;2.97;;;;;;;11.32;78.43;101018.53;5032272;28;20044;-69
2022/01/02 09:58:13;;;;;;;13.95;4.85;;;;;;;11.41;77.92;101022.75;5024707;28;20029;-70
2022/01/02 10:00:40;;;;;;;19.90;9.05;;;;;;;11.37;78.43;101031.84;5040214;28;20029;-70
2022/01/02 10:03:08;;;;;;;11.70;4.97;;;;;;;11.44;78.83;101034.63;5031195;28;20031;-70
2022/01/02 10:05:52;;;;;;;4.60;2.83;;;;;;;11.47;78.48;101032.53;5029382;28;20037;-70
2022/01/02 10:08:23;;;;;;;9.35;3.53;;;;;;;11.58;78.55;101041.00;5022612;28;20037;-70
2022/01/02 10:11:00;;;;;;;6.30;2.72;;;;;;;11.50;78.80;101036.59;5038751;28;20037;-70
2022/01/02 10:13:48;;;;;;;7.05;2.35;;;;;;;11.59;78.06;101022.69;5041554;28;20034;-70
2022/01/02 10:16:26;;;;;;;7.53;2.72;;;;;;;11.58;78.62;101034.03;5021746;28;20029;-69
2022/01/02 10:18:55;;;;;;;10.13;2.35;;;;;;;11.61;78.58;101033.72;4997189;28;20037;-70
2022/01/02 10:21:39;;;;;;;6.78;2.78;;;;;;;11.68;78.84;101024.34;5001284;28;20029;-70
2022/01/02 10:24:22;;;;;;;6.65;2.97;;;;;;;11.68;79.39;101031.34;5009551;28;20030;-69
2022/01/02 10:27:03;;;;;;;8.48;2.80;;;;;;;11.73;78.47;101028.25;5003177;28;20392;-70
2022/01/02 10:29:58;;;;;;;7.18;3.22;;;;;;;11.75;78.41;101032.31;5012091;28;20041;-70
2022/01/02 10:32:28;;;;;;;9.57;3.03;;;;;;;11.82;78.43;101029.91;4998744;28;20411;-70
2022/01/02 10:35:06;;;;;;;7.13;2.90;;;;;;;11.83;78.58;101021.94;5009858;28;20065;-69
2022/01/02 10:37:32;;;;;;;8.50;3.05;;;;;;;11.81;78.55;101008.31;5007321;28;20506;-70
2022/01/02 10:39:57;;;;;;;7.78;4.30;;;;;;;11.68;79.29;101013.94;5003267;28;20026;-70
2022/01/02 10:42:23;;;;;;;10.38;4.22;;;;;;;11.66;79.08;101015.09;5001020;28;20215;-70
2022/01/02 10:44:49;;;;;;;10.27;4.35;;;;;;;11.63;79.91;101030.97;5009140;28;20483;-70
2022/01/02 10:47:20;;;;;;;9.20;3.97;;;;;;;11.65;79.15;101021.25;4995306;28;20038;-69
2022/01/02 10:49:54;;;;;;;14.77;4.30;;;;;;;11.76;78.37;101013.16;5006452;28;20042;-70
2022/01/02 10:52:41;;;;;;;15.82;6.68;;;;;;;11.69;79.49;101018.16;5006047;28;20399;-70
2022/01/02 10:55:21;;;;;;;12.55;6.00;;;;;;;11.75;78.65;101027.09;5017321;28;20499;-70
2022/01/02 10:57:49;;;;;;;13.23;4.25;;;;;;;11.83;78.82;101027.16;5003024;28;20045;-70
2022/01/02 11:00:20;;;;;;;17.70;5.57;;;;;;;11.95;78.08;101034.69;4994329;28;20034;-69
2022/01/02 11:02:46;;;;;;;9.10;4.20;;;;;;;12.05;77.46;101020.56;5009123;28;20034;-70
2022/01/02 11:05:14;;;;;;;13.32;4.65;;;;;;;11.97;77.74;101038.72;5007881;28;20509;-70
2022/01/02 11:07:40;;;;;;;15.02;6.82;;;;;;;11.95;78.57;101039.88;5015341;28;20045;-70
2022/01/02 11:10:07;;;;;;;24.08;7.93;;;;;;;11.92;78.69;101037.59;4991570;28;20029;-70
2022/01/02 11:12:32;;;;;;;31.50;10.73;;;;;;;11.88;79.21;101024.91;5009162;28;20021;-70
2022/01/02 11:15:00;;;;;;;24.90;8.60;;;;;;;11.92;78.49;101017.59;4993246;28;20052;-70
2022/01/02 11:17:27;;;;;;;17.17;7.18;;;;;;;11.87;78.86;101027.66;4998561;28;20030;-70
2022/01/02 11:19:53;;;;;;;12.32;5.38;;;;;;;11.88;78.75;101024.06;5012358;28;20419;-70
2022/01/02 11:22:34;;;;;;;8.07;4.22;;;;;;;11.86;79.23;101024.22;5007169;28;20271;-69
2022/01/02 11:25:22;;;;;;;8.55;3.72;;;;;;;11.87;79.16;101027.66;5008075;28;20046;-70
2022/01/02 11:27:52;;;;;;;8.50;2.83;;;;;;;11.95;79.26;101021.69;5021509;28;20518;-70
2022/01/02 11:30:30;;;;;;;10.85;3.58;;;;;;;12.02;78.30;101015.69;5028240;28;20091;-70
2022/01/02 11:33:17;;;;;;;9.45;3.13;;;;;;;12.03;79.07;101016.50;5009422;28;20496;-70
2022/01/02 11:35:48;;;;;;;10.07;3.92;;;;;;;11.98;79.20;101005.75;5003850;28;20038;-70